sensor_id;sensor_type;location;lat;lon;timestamp;pressure;altitude;pressure_sealevel;temperature;humidity
61757;BME280;57225;61.460;24.060;2022-10-31T00:01:49;100204.66;;;1.23;100.00
61757;BME280;57225;61.460;24.060;2022-10-31T00:04:33;100207.31;;;1.31;100.00
61757;BME280;57225;61.460;24.060;2022-10-31T00:07:17;100214.41;;;1.32;100.00
61757;BME280;57225;61.460;24.060;2022-10-31T00:10:02;100214.19;;;1.37;100.00
61757;BME280;57225;61.460;24.060;2022-10-31T00:12:46;100208.81;;;1.41;100.00
61757;BME280;57225;61.460;24.060;2022-10-31T00:15:33;100219.13;;;1.44;100.00
61757;BME280;57225;61.460;24.060;2022-10-31T00:18:17;100215.59;;;1.43;100.00
61757;BME280;57225;61.460;24.060;2022-10-31T00:21:02;100213.88;;;1.39;100.00
61757;BME280;57225;61.460;24.060;2022-10-31T00:23:47;100215.59;;;1.43;100.00
61757;BME280;57225;61.460;24.060;2022-10-31T00:26:32;100215.22;;;1.33;100.00
61757;BME280;57225;61.460;24.060;2022-10-31T00:29:16;100209.66;;;1.20;100.00
61757;BME280;57225;61.460;24.060;2022-10-31T00:32:01;100216.50;;;1.14;100.00
61757;BME280;57225;61.460;24.060;2022-10-31T00:34:45;100217.41;;;1.06;100.00
61757;BME280;57225;61.460;24.060;2022-10-31T00:37:30;100208.91;;;0.99;100.00
61757;BME280;57225;61.460;24.060;2022-10-31T00:40:14;100206.13;;;0.87;100.00
61757;BME280;57225;61.460;24.060;2022-10-31T00:42:59;100217.03;;;0.75;100.00
61757;BME280;57225;61.460;24.060;2022-10-31T00:45:43;100218.56;;;0.64;100.00
61757;BME280;57225;61.460;24.060;2022-10-31T00:48:28;100215.75;;;0.52;100.00
61757;BME280;57225;61.460;24.060;2022-10-31T00:51:13;100200.84;;;0.40;100.00
61757;BME280;57225;61.460;24.060;2022-10-31T00:53:57;100215.22;;;0.37;100.00
61757;BME280;57225;61.460;24.060;2022-10-31T00:56:42;100207.03;;;0.29;100.00
61757;BME280;57225;61.460;24.060;2022-10-31T00:59:26;100217.44;;;0.15;100.00
61757;BME280;57225;61.460;24.060;2022-10-31T01:02:10;100221.03;;;0.07;100.00
61757;BME280;57225;61.460;24.060;2022-10-31T01:04:55;100224.94;;;-0.03;100.00
61757;BME280;57225;61.460;24.060;2022-10-31T01:07:40;100225.13;;;-0.08;100.00
61757;BME280;57225;61.460;24.060;2022-10-31T01:10:25;100213.09;;;-0.16;100.00
61757;BME280;57225;61.460;24.060;2022-10-31T01:13:10;100215.78;;;-0.07;100.00
61757;BME280;57225;61.460;24.060;2022-10-31T01:15:58;100233.03;;;-0.07;100.00
61757;BME280;57225;61.460;24.060;2022-10-31T01:18:43;100229.81;;;-0.09;100.00
61757;BME280;57225;61.460;24.060;2022-10-31T01:21:29;100228.53;;;-0.11;100.00
61757;BME280;57225;61.460;24.060;2022-10-31T01:24:13;100216.53;;;-0.27;100.00
61757;BME280;57225;61.460;24.060;2022-10-31T01:26:58;100224.56;;;-0.31;100.00
61757;BME280;57225;61.460;24.060;2022-10-31T01:29:42;100232.34;;;-0.42;100.00
61757;BME280;57225;61.460;24.060;2022-10-31T01:32:27;100237.06;;;-0.51;100.00
61757;BME280;57225;61.460;24.060;2022-10-31T01:35:13;100229.16;;;-0.52;100.00
61757;BME280;57225;61.460;24.060;2022-10-31T01:37:57;100224.81;;;-0.53;100.00
61757;BME280;57225;61.460;24.060;2022-10-31T01:40:41;100228.06;;;-0.60;100.00
61757;BME280;57225;61.460;24.060;2022-10-31T01:43:42;100225.50;;;-0.65;100.00
61757;BME280;57225;61.460;24.060;2022-10-31T01:46:33;100226.63;;;-0.66;100.00
61757;BME280;57225;61.460;24.060;2022-10-31T01:52:24;100229.53;;;-0.88;100.00
61757;BME280;57225;61.460;24.060;2022-10-31T01:55:23;100233.91;;;-0.78;100.00
61757;BME280;57225;61.460;24.060;2022-10-31T01:58:29;100232.78;;;-0.86;100.00
61757;BME280;57225;61.460;24.060;2022-10-31T02:01:16;100235.69;;;-0.91;100.00
61757;BME280;57225;61.460;24.060;2022-10-31T02:04:00;100230.22;;;-1.00;100.00
61757;BME280;57225;61.460;24.060;2022-10-31T02:06:49;100233.28;;;-1.01;100.00
61757;BME280;57225;61.460;24.060;2022-10-31T02:09:36;100240.34;;;-1.00;100.00
61757;BME280;57225;61.460;24.060;2022-10-31T02:12:22;100231.19;;;-1.04;100.00
61757;BME280;57225;61.460;24.060;2022-10-31T02:15:07;100238.75;;;-1.10;100.00
61757;BME280;57225;61.460;24.060;2022-10-31T02:17:52;100230.53;;;-1.18;100.00
61757;BME280;57225;61.460;24.060;2022-10-31T02:23:53;100236.50;;;-1.16;100.00
61757;BME280;57225;61.460;24.060;2022-10-31T02:28:06;100237.28;;;-1.07;100.00
61757;BME280;57225;61.460;24.060;2022-10-31T02:30:40;100234.56;;;-1.07;100.00
61757;BME280;57225;61.460;24.060;2022-10-31T02:33:41;100250.66;;;-1.14;100.00
61757;BME280;57225;61.460;24.060;2022-10-31T02:39:59;100239.56;;;-1.09;100.00
61757;BME280;57225;61.460;24.060;2022-10-31T02:48:38;100257.72;;;-1.13;100.00
61757;BME280;57225;61.460;24.060;2022-10-31T02:51:24;100254.84;;;-1.08;100.00
61757;BME280;57225;61.460;24.060;2022-10-31T02:54:19;100259.34;;;-1.04;100.00
61757;BME280;57225;61.460;24.060;2022-10-31T02:57:07;100254.97;;;-1.13;100.00
61757;BME280;57225;61.460;24.060;2022-10-31T03:00:04;100266.59;;;-1.16;100.00
61757;BME280;57225;61.460;24.060;2022-10-31T03:06:32;100272.66;;;-1.37;100.00
61757;BME280;57225;61.460;24.060;2022-10-31T03:12:38;100266.72;;;-1.39;100.00
61757;BME280;57225;61.460;24.060;2022-10-31T03:15:36;100268.31;;;-1.38;100.00
61757;BME280;57225;61.460;24.060;2022-10-31T03:18:30;100272.53;;;-1.40;100.00
61757;BME280;57225;61.460;24.060;2022-10-31T03:21:21;100272.34;;;-1.44;100.00
61757;BME280;57225;61.460;24.060;2022-10-31T03:24:07;100268.47;;;-1.43;100.00
61757;BME280;57225;61.460;24.060;2022-10-31T03:26:55;100276.19;;;-1.45;100.00
61757;BME280;57225;61.460;24.060;2022-10-31T03:29:42;100272.66;;;-1.54;100.00
61757;BME280;57225;61.460;24.060;2022-10-31T03:32:38;100283.88;;;-1.55;100.00
61757;BME280;57225;61.460;24.060;2022-10-31T03:35:25;100278.72;;;-1.57;100.00
61757;BME280;57225;61.460;24.060;2022-10-31T03:38:11;100272.31;;;-1.61;100.00
61757;BME280;57225;61.460;24.060;2022-10-31T03:40:58;100269.88;;;-1.63;100.00
61757;BME280;57225;61.460;24.060;2022-10-31T03:43:51;100281.63;;;-1.62;100.00
61757;BME280;57225;61.460;24.060;2022-10-31T03:46:36;100290.47;;;-1.56;100.00
61757;BME280;57225;61.460;24.060;2022-10-31T03:49:21;100286.47;;;-1.59;100.00
61757;BME280;57225;61.460;24.060;2022-10-31T03:52:10;100284.84;;;-1.60;100.00
61757;BME280;57225;61.460;24.060;2022-10-31T03:55:09;100286.28;;;-1.63;100.00
61757;BME280;57225;61.460;24.060;2022-10-31T04:00:44;100283.53;;;-1.71;100.00
61757;BME280;57225;61.460;24.060;2022-10-31T04:03:32;100289.13;;;-1.76;100.00
61757;BME280;57225;61.460;24.060;2022-10-31T04:06:19;100296.38;;;-1.80;100.00
61757;BME280;57225;61.460;24.060;2022-10-31T04:09:05;100301.97;;;-1.85;100.00
61757;BME280;57225;61.460;24.060;2022-10-31T04:11:54;100302.28;;;-1.87;100.00
61757;BME280;57225;61.460;24.060;2022-10-31T04:14:42;100307.22;;;-1.97;100.00
61757;BME280;57225;61.460;24.060;2022-10-31T04:17:30;100313.03;;;-1.90;100.00
61757;BME280;57225;61.460;24.060;2022-10-31T04:20:16;100312.41;;;-1.87;100.00
61757;BME280;57225;61.460;24.060;2022-10-31T04:23:01;100307.75;;;-1.87;100.00
61757;BME280;57225;61.460;24.060;2022-10-31T04:25:46;100304.69;;;-1.85;100.00
61757;BME280;57225;61.460;24.060;2022-10-31T04:28:30;100305.31;;;-1.88;100.00
61757;BME280;57225;61.460;24.060;2022-10-31T04:31:16;100291.34;;;-1.87;100.00
61757;BME280;57225;61.460;24.060;2022-10-31T04:34:01;100298.25;;;-1.89;100.00
61757;BME280;57225;61.460;24.060;2022-10-31T04:36:45;100299.56;;;-1.87;100.00
61757;BME280;57225;61.460;24.060;2022-10-31T04:39:30;100300.19;;;-1.90;100.00
61757;BME280;57225;61.460;24.060;2022-10-31T04:42:14;100298.75;;;-1.87;100.00
61757;BME280;57225;61.460;24.060;2022-10-31T04:44:58;100311.44;;;-1.91;100.00
61757;BME280;57225;61.460;24.060;2022-10-31T04:47:43;100307.22;;;-1.97;100.00
61757;BME280;57225;61.460;24.060;2022-10-31T04:50:27;100307.84;;;-2.00;100.00
61757;BME280;57225;61.460;24.060;2022-10-31T04:53:11;100317.03;;;-1.96;100.00
61757;BME280;57225;61.460;24.060;2022-10-31T04:55:58;100312.34;;;-1.96;100.00
61757;BME280;57225;61.460;24.060;2022-10-31T04:58:43;100321.19;;;-1.99;100.00
61757;BME280;57225;61.460;24.060;2022-10-31T05:01:28;100317.78;;;-2.05;100.00
61757;BME280;57225;61.460;24.060;2022-10-31T05:04:12;100315.38;;;-2.06;100.00
61757;BME280;57225;61.460;24.060;2022-10-31T05:06:56;100312.47;;;-2.10;100.00
61757;BME280;57225;61.460;24.060;2022-10-31T05:09:41;100304.75;;;-2.08;100.00
61757;BME280;57225;61.460;24.060;2022-10-31T05:12:25;100293.97;;;-2.13;100.00
61757;BME280;57225;61.460;24.060;2022-10-31T05:15:10;100292.81;;;-2.20;100.00
61757;BME280;57225;61.460;24.060;2022-10-31T05:17:55;100300.19;;;-2.21;100.00
61757;BME280;57225;61.460;24.060;2022-10-31T05:20:42;100295.88;;;-2.22;100.00
61757;BME280;57225;61.460;24.060;2022-10-31T05:23:26;100300.84;;;-2.24;100.00
61757;BME280;57225;61.460;24.060;2022-10-31T05:26:11;100297.75;;;-2.31;100.00
61757;BME280;57225;61.460;24.060;2022-10-31T05:28:55;100304.19;;;-2.27;100.00
61757;BME280;57225;61.460;24.060;2022-10-31T05:31:40;100304.84;;;-2.21;100.00
61757;BME280;57225;61.460;24.060;2022-10-31T05:34:24;100305.53;;;-2.16;100.00
61757;BME280;57225;61.460;24.060;2022-10-31T05:37:08;100295.25;;;-2.19;100.00
61757;BME280;57225;61.460;24.060;2022-10-31T05:39:53;100312.25;;;-2.22;100.00
61757;BME280;57225;61.460;24.060;2022-10-31T05:42:41;100307.41;;;-2.25;100.00
61757;BME280;57225;61.460;24.060;2022-10-31T05:45:26;100298.28;;;-2.20;100.00
61757;BME280;57225;61.460;24.060;2022-10-31T05:48:10;100291.38;;;-2.18;100.00
61757;BME280;57225;61.460;24.060;2022-10-31T05:50:55;100297.97;;;-2.19;100.00
61757;BME280;57225;61.460;24.060;2022-10-31T05:53:40;100291.03;;;-2.25;100.00
61757;BME280;57225;61.460;24.060;2022-10-31T05:56:24;100297.16;;;-2.19;100.00
61757;BME280;57225;61.460;24.060;2022-10-31T05:59:08;100303.94;;;-2.17;100.00
61757;BME280;57225;61.460;24.060;2022-10-31T06:01:52;100299.44;;;-2.13;100.00
61757;BME280;57225;61.460;24.060;2022-10-31T06:04:37;100302.66;;;-2.11;100.00
61757;BME280;57225;61.460;24.060;2022-10-31T06:07:21;100309.75;;;-2.10;100.00
61757;BME280;57225;61.460;24.060;2022-10-31T06:10:07;100316.19;;;-2.06;100.00
61757;BME280;57225;61.460;24.060;2022-10-31T06:12:52;100322.81;;;-1.98;100.00
61757;BME280;57225;61.460;24.060;2022-10-31T06:15:36;100315.28;;;-1.92;100.00
61757;BME280;57225;61.460;24.060;2022-10-31T06:18:21;100323.06;;;-1.77;100.00
61757;BME280;57225;61.460;24.060;2022-10-31T06:21:05;100320.53;;;-1.65;100.00
61757;BME280;57225;61.460;24.060;2022-10-31T06:23:50;100323.72;;;-1.63;100.00
61757;BME280;57225;61.460;24.060;2022-10-31T06:26:34;100323.16;;;-1.43;100.00
61757;BME280;57225;61.460;24.060;2022-10-31T06:29:18;100333.94;;;-1.38;100.00
61757;BME280;57225;61.460;24.060;2022-10-31T06:32:03;100331.66;;;-1.44;100.00
61757;BME280;57225;61.460;24.060;2022-10-31T06:34:47;100342.78;;;-1.41;100.00
61757;BME280;57225;61.460;24.060;2022-10-31T06:37:32;100348.09;;;-1.36;100.00
61757;BME280;57225;61.460;24.060;2022-10-31T06:40:16;100350.31;;;-1.38;100.00
61757;BME280;57225;61.460;24.060;2022-10-31T06:43:01;100344.59;;;-1.28;100.00
61757;BME280;57225;61.460;24.060;2022-10-31T06:45:45;100359.06;;;-1.18;100.00
61757;BME280;57225;61.460;24.060;2022-10-31T06:48:30;100357.16;;;-1.09;100.00
61757;BME280;57225;61.460;24.060;2022-10-31T06:51:14;100365.50;;;-1.06;100.00
61757;BME280;57225;61.460;24.060;2022-10-31T06:53:59;100362.47;;;-1.04;100.00
61757;BME280;57225;61.460;24.060;2022-10-31T06:56:45;100369.38;;;-0.98;100.00
61757;BME280;57225;61.460;24.060;2022-10-31T06:59:31;100375.81;;;-0.94;100.00
61757;BME280;57225;61.460;24.060;2022-10-31T07:02:15;100363.75;;;-0.93;100.00
61757;BME280;57225;61.460;24.060;2022-10-31T07:05:00;100367.47;;;-0.81;100.00
61757;BME280;57225;61.460;24.060;2022-10-31T07:07:44;100371.19;;;-0.68;100.00
61757;BME280;57225;61.460;24.060;2022-10-31T07:10:29;100367.00;;;-0.74;100.00
61757;BME280;57225;61.460;24.060;2022-10-31T07:13:14;100359.28;;;-0.72;100.00
61757;BME280;57225;61.460;24.060;2022-10-31T07:16:01;100358.47;;;-0.64;100.00
61757;BME280;57225;61.460;24.060;2022-10-31T07:18:47;100356.34;;;-0.50;100.00
61757;BME280;57225;61.460;24.060;2022-10-31T07:21:31;100357.97;;;-0.49;100.00
61757;BME280;57225;61.460;24.060;2022-10-31T07:24:18;100360.72;;;-0.49;100.00
61757;BME280;57225;61.460;24.060;2022-10-31T07:27:02;100358.94;;;-0.53;100.00
61757;BME280;57225;61.460;24.060;2022-10-31T07:29:50;100366.19;;;-0.49;100.00
61757;BME280;57225;61.460;24.060;2022-10-31T07:32:48;100372.28;;;-0.43;100.00
61757;BME280;57225;61.460;24.060;2022-10-31T07:35:33;100363.63;;;-0.45;100.00
61757;BME280;57225;61.460;24.060;2022-10-31T07:38:18;100367.31;;;-0.32;100.00
61757;BME280;57225;61.460;24.060;2022-10-31T07:41:03;100363.72;;;-0.24;100.00
61757;BME280;57225;61.460;24.060;2022-10-31T07:43:47;100362.56;;;0.03;100.00
61757;BME280;57225;61.460;24.060;2022-10-31T07:46:32;100363.56;;;0.36;100.00
61757;BME280;57225;61.460;24.060;2022-10-31T07:49:17;100365.84;;;0.63;100.00
61757;BME280;57225;61.460;24.060;2022-10-31T07:52:01;100373.69;;;0.82;100.00
61757;BME280;57225;61.460;24.060;2022-10-31T07:54:46;100363.41;;;1.00;100.00
61757;BME280;57225;61.460;24.060;2022-10-31T07:57:30;100371.81;;;1.15;100.00
61757;BME280;57225;61.460;24.060;2022-10-31T08:00:15;100377.38;;;1.28;100.00
61757;BME280;57225;61.460;24.060;2022-10-31T08:03:13;100380.81;;;1.45;100.00
61757;BME280;57225;61.460;24.060;2022-10-31T08:05:58;100370.44;;;1.51;100.00
61757;BME280;57225;61.460;24.060;2022-10-31T08:08:43;100369.53;;;1.59;100.00
61757;BME280;57225;61.460;24.060;2022-10-31T08:11:27;100379.31;;;1.69;100.00
61757;BME280;57225;61.460;24.060;2022-10-31T08:14:13;100367.31;;;1.73;100.00
61757;BME280;57225;61.460;24.060;2022-10-31T08:16:58;100374.69;;;1.81;100.00
61757;BME280;57225;61.460;24.060;2022-10-31T08:19:42;100369.22;;;1.93;100.00
61757;BME280;57225;61.460;24.060;2022-10-31T08:22:26;100368.41;;;1.93;100.00
61757;BME280;57225;61.460;24.060;2022-10-31T08:25:11;100355.16;;;1.95;100.00
61757;BME280;57225;61.460;24.060;2022-10-31T08:27:56;100365.44;;;1.98;100.00
61757;BME280;57225;61.460;24.060;2022-10-31T08:30:41;100345.78;;;2.08;100.00
61757;BME280;57225;61.460;24.060;2022-10-31T08:33:25;100356.34;;;2.18;100.00
61757;BME280;57225;61.460;24.060;2022-10-31T08:36:10;100353.13;;;2.28;100.00
61757;BME280;57225;61.460;24.060;2022-10-31T08:38:54;100369.78;;;2.56;100.00
61757;BME280;57225;61.460;24.060;2022-10-31T08:41:41;100361.06;;;2.78;100.00
61757;BME280;57225;61.460;24.060;2022-10-31T08:44:25;100367.25;;;3.00;100.00
61757;BME280;57225;61.460;24.060;2022-10-31T08:47:12;100366.38;;;3.23;100.00
61757;BME280;57225;61.460;24.060;2022-10-31T08:49:56;100352.91;;;3.46;100.00
61757;BME280;57225;61.460;24.060;2022-10-31T08:52:41;100361.53;;;3.73;100.00
61757;BME280;57225;61.460;24.060;2022-10-31T08:55:25;100353.50;;;3.95;100.00
61757;BME280;57225;61.460;24.060;2022-10-31T08:58:12;100353.28;;;4.16;98.74
61757;BME280;57225;61.460;24.060;2022-10-31T09:00:59;100356.75;;;4.29;98.32
61757;BME280;57225;61.460;24.060;2022-10-31T09:03:43;100353.72;;;4.50;97.48
61757;BME280;57225;61.460;24.060;2022-10-31T09:06:27;100353.25;;;4.63;97.00
61757;BME280;57225;61.460;24.060;2022-10-31T09:09:12;100362.59;;;4.74;96.57
61757;BME280;57225;61.460;24.060;2022-10-31T09:11:56;100359.31;;;4.84;96.18
61757;BME280;57225;61.460;24.060;2022-10-31T09:14:40;100363.91;;;4.96;96.08
61757;BME280;57225;61.460;24.060;2022-10-31T09:17:25;100369.44;;;4.96;95.21
61757;BME280;57225;61.460;24.060;2022-10-31T09:20:10;100367.84;;;4.95;95.80
61757;BME280;57225;61.460;24.060;2022-10-31T09:23:00;100376.28;;;5.02;95.87
61757;BME280;57225;61.460;24.060;2022-10-31T09:25:46;100371.69;;;4.91;96.55
61757;BME280;57225;61.460;24.060;2022-10-31T09:28:30;100370.94;;;4.94;96.42
61757;BME280;57225;61.460;24.060;2022-10-31T09:31:17;100374.97;;;4.96;96.87
61757;BME280;57225;61.460;24.060;2022-10-31T09:34:02;100370.25;;;4.97;96.84
61757;BME280;57225;61.460;24.060;2022-10-31T09:36:48;100375.69;;;4.93;96.76
61757;BME280;57225;61.460;24.060;2022-10-31T09:39:33;100368.81;;;4.87;97.31
61757;BME280;57225;61.460;24.060;2022-10-31T09:43:20;100369.25;;;5.05;97.56
61757;BME280;57225;61.460;24.060;2022-10-31T09:45:52;100366.00;;;5.18;96.47
61757;BME280;57225;61.460;24.060;2022-10-31T09:52:05;100354.53;;;5.36;96.10
61757;BME280;57225;61.460;24.060;2022-10-31T09:54:57;100347.41;;;5.35;95.94
61757;BME280;57225;61.460;24.060;2022-10-31T09:57:43;100350.03;;;5.47;96.07
61757;BME280;57225;61.460;24.060;2022-10-31T10:00:29;100348.59;;;5.53;95.38
61757;BME280;57225;61.460;24.060;2022-10-31T10:03:35;100357.47;;;5.62;95.25
61757;BME280;57225;61.460;24.060;2022-10-31T10:06:25;100340.59;;;5.67;94.73
61757;BME280;57225;61.460;24.060;2022-10-31T10:09:11;100342.75;;;5.77;94.69
61757;BME280;57225;61.460;24.060;2022-10-31T10:12:25;100339.84;;;5.89;93.91
61757;BME280;57225;61.460;24.060;2022-10-31T10:19:10;100325.53;;;6.26;91.89
61757;BME280;57225;61.460;24.060;2022-10-31T10:22:28;100326.84;;;6.35;91.10
61757;BME280;57225;61.460;24.060;2022-10-31T10:28:17;100317.81;;;6.88;89.74
61757;BME280;57225;61.460;24.060;2022-10-31T10:31:28;100331.34;;;6.93;88.83
61757;BME280;57225;61.460;24.060;2022-10-31T10:34:34;100322.69;;;6.98;88.65
61757;BME280;57225;61.460;24.060;2022-10-31T10:37:26;100320.47;;;7.07;88.52
61757;BME280;57225;61.460;24.060;2022-10-31T10:40:18;100315.44;;;7.16;88.04
61757;BME280;57225;61.460;24.060;2022-10-31T10:43:20;100313.56;;;7.23;87.45
61757;BME280;57225;61.460;24.060;2022-10-31T10:46:19;100313.31;;;7.36;87.23
61757;BME280;57225;61.460;24.060;2022-10-31T10:52:52;100302.13;;;7.58;87.16
61757;BME280;57225;61.460;24.060;2022-10-31T10:56:30;100301.44;;;7.68;85.82
61757;BME280;57225;61.460;24.060;2022-10-31T10:59:11;100295.19;;;7.79;86.22
61757;BME280;57225;61.460;24.060;2022-10-31T11:01:57;100295.34;;;7.93;84.41
61757;BME280;57225;61.460;24.060;2022-10-31T11:04:42;100290.59;;;7.93;84.86
61757;BME280;57225;61.460;24.060;2022-10-31T11:07:37;100294.81;;;7.77;85.64
61757;BME280;57225;61.460;24.060;2022-10-31T11:10:22;100304.06;;;7.91;85.42
61757;BME280;57225;61.460;24.060;2022-10-31T11:16:11;100303.22;;;7.87;84.98
61757;BME280;57225;61.460;24.060;2022-10-31T11:19:07;100283.97;;;7.64;84.95
61757;BME280;57225;61.460;24.060;2022-10-31T11:21:53;100279.75;;;7.44;86.40
61757;BME280;57225;61.460;24.060;2022-10-31T11:24:40;100282.78;;;7.32;87.59
61757;BME280;57225;61.460;24.060;2022-10-31T11:27:25;100284.94;;;7.16;89.00
61757;BME280;57225;61.460;24.060;2022-10-31T11:30:12;100294.25;;;7.01;90.67
61757;BME280;57225;61.460;24.060;2022-10-31T11:32:58;100295.28;;;6.89;91.82
61757;BME280;57225;61.460;24.060;2022-10-31T11:35:42;100292.97;;;6.68;93.10
61757;BME280;57225;61.460;24.060;2022-10-31T11:38:33;100292.91;;;6.65;94.23
61757;BME280;57225;61.460;24.060;2022-10-31T11:41:25;100293.34;;;6.67;94.46
61757;BME280;57225;61.460;24.060;2022-10-31T11:44:23;100294.34;;;6.55;95.54
61757;BME280;57225;61.460;24.060;2022-10-31T11:47:13;100295.97;;;6.56;96.26
61757;BME280;57225;61.460;24.060;2022-10-31T11:50:02;100290.44;;;6.56;96.66
61757;BME280;57225;61.460;24.060;2022-10-31T11:52:53;100280.19;;;6.60;96.38
61757;BME280;57225;61.460;24.060;2022-10-31T11:55:39;100277.75;;;6.55;96.78
61757;BME280;57225;61.460;24.060;2022-10-31T11:58:25;100272.94;;;6.52;97.08
61757;BME280;57225;61.460;24.060;2022-10-31T12:01:27;100283.81;;;6.38;98.24
61757;BME280;57225;61.460;24.060;2022-10-31T12:04:12;100275.00;;;6.32;98.66
61757;BME280;57225;61.460;24.060;2022-10-31T12:06:57;100274.59;;;6.30;99.33
61757;BME280;57225;61.460;24.060;2022-10-31T12:09:41;100268.84;;;6.20;100.00
61757;BME280;57225;61.460;24.060;2022-10-31T12:15:38;100275.25;;;6.24;100.00
61757;BME280;57225;61.460;24.060;2022-10-31T12:18:50;100281.13;;;6.19;100.00
61757;BME280;57225;61.460;24.060;2022-10-31T12:27:51;100262.28;;;6.05;100.00
61757;BME280;57225;61.460;24.060;2022-10-31T12:30:55;100259.56;;;6.09;100.00
61757;BME280;57225;61.460;24.060;2022-10-31T12:46:16;100237.91;;;5.88;100.00
61757;BME280;57225;61.460;24.060;2022-10-31T12:58:51;100221.72;;;5.90;100.00
61757;BME280;57225;61.460;24.060;2022-10-31T13:01:49;100236.78;;;5.92;100.00
61757;BME280;57225;61.460;24.060;2022-10-31T13:04:43;100233.25;;;5.95;100.00
61757;BME280;57225;61.460;24.060;2022-10-31T13:08:08;100223.00;;;5.96;100.00
61757;BME280;57225;61.460;24.060;2022-10-31T13:11:07;100225.34;;;5.94;100.00
61757;BME280;57225;61.460;24.060;2022-10-31T13:16:51;100217.41;;;5.92;100.00
61757;BME280;57225;61.460;24.060;2022-10-31T13:19:43;100223.75;;;5.93;100.00
61757;BME280;57225;61.460;24.060;2022-10-31T13:22:31;100214.69;;;5.96;100.00
61757;BME280;57225;61.460;24.060;2022-10-31T13:25:36;100209.13;;;5.92;100.00
61757;BME280;57225;61.460;24.060;2022-10-31T13:31:22;100208.59;;;5.87;100.00
61757;BME280;57225;61.460;24.060;2022-10-31T13:34:27;100214.06;;;5.83;100.00
61757;BME280;57225;61.460;24.060;2022-10-31T13:43:26;100199.06;;;5.84;100.00
61757;BME280;57225;61.460;24.060;2022-10-31T13:46:23;100207.00;;;5.86;100.00
61757;BME280;57225;61.460;24.060;2022-10-31T13:52:23;100195.06;;;5.82;100.00
61757;BME280;57225;61.460;24.060;2022-10-31T13:55:34;100190.34;;;5.82;100.00
61757;BME280;57225;61.460;24.060;2022-10-31T13:58:29;100189.47;;;5.78;100.00
61757;BME280;57225;61.460;24.060;2022-10-31T14:01:19;100186.22;;;5.73;100.00
61757;BME280;57225;61.460;24.060;2022-10-31T14:04:12;100187.03;;;5.73;100.00
61757;BME280;57225;61.460;24.060;2022-10-31T14:10:20;100177.94;;;5.73;100.00
61757;BME280;57225;61.460;24.060;2022-10-31T14:16:34;100176.81;;;5.77;100.00
61757;BME280;57225;61.460;24.060;2022-10-31T14:19:22;100170.31;;;5.66;100.00
61757;BME280;57225;61.460;24.060;2022-10-31T14:22:21;100167.91;;;5.64;100.00
61757;BME280;57225;61.460;24.060;2022-10-31T14:25:27;100168.00;;;5.68;100.00
61757;BME280;57225;61.460;24.060;2022-10-31T14:28:31;100157.59;;;5.61;100.00
61757;BME280;57225;61.460;24.060;2022-10-31T14:31:35;100158.09;;;5.67;100.00
61757;BME280;57225;61.460;24.060;2022-10-31T14:50:03;100156.06;;;5.64;100.00
61757;BME280;57225;61.460;24.060;2022-10-31T14:52:54;100148.91;;;5.63;100.00
61757;BME280;57225;61.460;24.060;2022-10-31T14:55:43;100143.03;;;5.64;100.00
61757;BME280;57225;61.460;24.060;2022-10-31T14:58:43;100141.06;;;5.65;100.00
61757;BME280;57225;61.460;24.060;2022-10-31T15:04:17;100136.69;;;5.64;100.00
61757;BME280;57225;61.460;24.060;2022-10-31T15:07:21;100126.03;;;5.62;100.00
61757;BME280;57225;61.460;24.060;2022-10-31T15:10:19;100123.63;;;5.61;100.00
61757;BME280;57225;61.460;24.060;2022-10-31T15:13:21;100119.69;;;5.62;100.00
61757;BME280;57225;61.460;24.060;2022-10-31T15:16:08;100118.81;;;5.58;100.00
61757;BME280;57225;61.460;24.060;2022-10-31T15:18:56;100120.44;;;5.59;100.00
61757;BME280;57225;61.460;24.060;2022-10-31T15:21:43;100117.28;;;5.60;100.00
61757;BME280;57225;61.460;24.060;2022-10-31T15:24:36;100112.88;;;5.56;100.00
61757;BME280;57225;61.460;24.060;2022-10-31T15:27:23;100106.16;;;5.57;100.00
61757;BME280;57225;61.460;24.060;2022-10-31T15:30:19;100106.91;;;5.54;100.00
61757;BME280;57225;61.460;24.060;2022-10-31T15:33:19;100105.31;;;5.53;100.00
61757;BME280;57225;61.460;24.060;2022-10-31T15:36:04;100111.28;;;5.55;100.00
61757;BME280;57225;61.460;24.060;2022-10-31T15:38:49;100109.38;;;5.59;100.00
61757;BME280;57225;61.460;24.060;2022-10-31T15:41:53;100096.72;;;5.58;100.00
61757;BME280;57225;61.460;24.060;2022-10-31T15:44:40;100098.63;;;5.54;100.00
61757;BME280;57225;61.460;24.060;2022-10-31T15:47:28;100088.00;;;5.56;100.00
61757;BME280;57225;61.460;24.060;2022-10-31T15:50:29;100082.03;;;5.54;100.00
61757;BME280;57225;61.460;24.060;2022-10-31T15:53:19;100080.13;;;5.58;100.00
61757;BME280;57225;61.460;24.060;2022-10-31T15:56:07;100085.25;;;5.56;100.00
61757;BME280;57225;61.460;24.060;2022-10-31T15:58:54;100067.06;;;5.55;100.00
61757;BME280;57225;61.460;24.060;2022-10-31T16:01:40;100071.50;;;5.63;100.00
61757;BME280;57225;61.460;24.060;2022-10-31T16:04:25;100077.91;;;5.67;100.00
61757;BME280;57225;61.460;24.060;2022-10-31T16:07:15;100070.78;;;5.66;100.00
61757;BME280;57225;61.460;24.060;2022-10-31T16:10:02;100058.91;;;5.65;100.00
61757;BME280;57225;61.460;24.060;2022-10-31T16:12:46;100062.16;;;5.71;100.00
61757;BME280;57225;61.460;24.060;2022-10-31T16:15:30;100056.00;;;5.81;100.00
61757;BME280;57225;61.460;24.060;2022-10-31T16:18:17;100054.41;;;5.80;100.00
61757;BME280;57225;61.460;24.060;2022-10-31T16:21:01;100046.13;;;5.80;100.00
61757;BME280;57225;61.460;24.060;2022-10-31T16:23:48;100049.25;;;5.79;100.00